createdAt,value
2023-01-27T00:01:07.585Z,5.06
2023-01-27T00:03:35.096Z,4.96
2023-01-27T00:06:04.803Z,4.81
2023-01-27T00:08:32.182Z,4.90
2023-01-27T00:11:18.830Z,4.87
2023-01-27T00:13:46.193Z,4.84
2023-01-27T00:16:13.773Z,4.95
2023-01-27T00:18:41.338Z,4.93
2023-01-27T00:21:27.313Z,4.90
2023-01-27T00:24:13.338Z,4.89
2023-01-27T00:26:40.804Z,5.06
2023-01-27T00:29:09.361Z,5.01
2023-01-27T00:31:55.257Z,5.05
2023-01-27T00:34:22.635Z,4.76
2023-01-27T00:36:50.132Z,4.66
2023-01-27T00:39:17.523Z,4.77
2023-01-27T00:41:44.831Z,4.87
2023-01-27T00:44:13.529Z,4.90
2023-01-27T00:46:42.489Z,4.61
2023-01-27T00:49:10.842Z,4.77
2023-01-27T00:51:38.351Z,4.67
2023-01-27T00:54:05.855Z,4.58
2023-01-27T00:56:33.554Z,4.65
2023-01-27T00:59:01.176Z,4.67
2023-01-27T01:01:29.249Z,4.70
2023-01-27T01:03:58.876Z,4.85
2023-01-27T01:06:26.718Z,4.86
2023-01-27T01:08:56.918Z,4.70
2023-01-27T01:11:25.510Z,4.80
2023-01-27T01:13:55.610Z,4.71
2023-01-27T01:16:24.907Z,4.57
2023-01-27T01:18:52.299Z,4.53
2023-01-27T01:21:21.064Z,4.67
2023-01-27T01:23:48.513Z,4.80
2023-01-27T01:26:17.534Z,4.71
2023-01-27T01:28:45.779Z,4.61
2023-01-27T01:31:19.234Z,4.57
2023-01-27T01:33:47.900Z,4.48
2023-01-27T01:36:18.785Z,4.49
2023-01-27T01:38:46.957Z,4.52
2023-01-27T01:41:33.173Z,4.57
2023-01-27T01:44:21.614Z,4.48
2023-01-27T01:46:49.028Z,4.36
2023-01-27T01:49:19.121Z,4.43
2023-01-27T01:52:01.685Z,4.41
2023-01-27T01:54:52.604Z,4.56
2023-01-27T01:57:29.483Z,4.47
2023-01-27T02:00:02.040Z,4.58
2023-01-27T02:02:31.448Z,4.38
2023-01-27T02:05:06.302Z,4.31
2023-01-27T02:07:38.773Z,4.37
2023-01-27T02:10:06.479Z,4.43
2023-01-27T02:12:36.066Z,4.46
2023-01-27T02:15:05.947Z,4.48
2023-01-27T02:17:33.757Z,4.47
2023-01-27T02:20:12.287Z,4.49
2023-01-27T02:22:56.342Z,4.42
2023-01-27T02:25:32.749Z,4.60
2023-01-27T02:28:01.186Z,4.45
2023-01-27T02:30:28.990Z,4.40
2023-01-27T02:32:56.706Z,4.43
2023-01-27T02:35:34.868Z,4.41
2023-01-27T02:38:04.191Z,4.61
2023-01-27T02:40:33.310Z,4.55
2023-01-27T02:43:01.776Z,4.41
2023-01-27T02:45:29.257Z,4.48
2023-01-27T02:47:56.760Z,4.46
2023-01-27T02:50:24.517Z,4.40
2023-01-27T02:52:51.994Z,4.39
2023-01-27T02:55:19.371Z,4.41
2023-01-27T02:57:46.943Z,4.37
2023-01-27T03:00:33.651Z,4.40
2023-01-27T03:03:01.160Z,4.43
2023-01-27T03:05:28.709Z,4.45
2023-01-27T03:07:56.693Z,4.50
2023-01-27T03:10:24.144Z,4.41
2023-01-27T03:12:51.755Z,4.39
2023-01-27T03:15:37.964Z,4.30
2023-01-27T03:18:17.985Z,4.32
2023-01-27T03:20:47.794Z,4.47
2023-01-27T03:23:18.072Z,4.48
2023-01-27T03:25:49.852Z,4.49
2023-01-27T03:28:17.441Z,4.50
2023-01-27T03:31:02.479Z,4.33
2023-01-27T03:33:43.160Z,4.22
2023-01-27T03:36:47.550Z,4.41
2023-01-27T03:39:33.624Z,4.33
2023-01-27T03:42:19.558Z,4.28
2023-01-27T03:45:06.282Z,4.41
2023-01-27T03:47:33.694Z,4.24
2023-01-27T03:50:01.199Z,4.32
2023-01-27T03:52:28.681Z,4.20
2023-01-27T03:54:56.284Z,4.31
2023-01-27T03:57:23.822Z,4.31
2023-01-27T03:59:51.295Z,4.34
2023-01-27T04:02:38.216Z,4.34
2023-01-27T04:05:24.743Z,4.28
2023-01-27T04:07:52.235Z,4.35
2023-01-27T04:10:19.671Z,4.33
2023-01-27T04:12:48.738Z,4.33
2023-01-27T04:15:17.489Z,4.36
2023-01-27T04:17:46.952Z,4.13
2023-01-27T04:20:14.605Z,4.21
2023-01-27T04:22:42.204Z,4.14
2023-01-27T04:25:12.169Z,4.11
2023-01-27T04:27:40.504Z,4.16
2023-01-27T04:30:08.602Z,4.18
2023-01-27T04:32:36.035Z,4.25
2023-01-27T04:35:03.744Z,4.22
2023-01-27T04:37:31.697Z,4.25
2023-01-27T04:39:59.132Z,4.25
2023-01-27T04:42:26.695Z,4.33
2023-01-27T04:44:54.136Z,4.35
2023-01-27T04:47:21.691Z,4.36
2023-01-27T04:49:49.148Z,4.28
2023-01-27T04:52:16.615Z,4.21
2023-01-27T04:54:44.066Z,4.21
2023-01-27T04:57:11.757Z,4.12
2023-01-27T04:59:39.204Z,4.29
2023-01-27T05:02:07.004Z,4.25
2023-01-27T05:04:34.515Z,4.26
2023-01-27T05:07:02.513Z,4.27
2023-01-27T05:09:29.910Z,4.24
2023-01-27T05:11:57.523Z,4.23
2023-01-27T05:14:26.161Z,4.20
2023-01-27T05:16:53.632Z,4.18
2023-01-27T05:19:21.107Z,4.17
2023-01-27T05:21:48.531Z,4.11
2023-01-27T05:24:16.083Z,4.20
2023-01-27T05:26:43.606Z,4.19
2023-01-27T05:29:11.005Z,4.14
2023-01-27T05:31:38.693Z,4.07
2023-01-27T05:34:06.178Z,4.07
2023-01-27T05:36:33.659Z,4.15
2023-01-27T05:39:01.071Z,4.15
2023-01-27T05:41:32.801Z,4.18
2023-01-27T05:44:00.447Z,4.18
2023-01-27T05:46:30.311Z,4.16
2023-01-27T05:49:00.846Z,4.16
2023-01-27T05:51:33.639Z,4.15
2023-01-27T05:54:01.259Z,4.15
2023-01-27T05:56:28.832Z,4.19
2023-01-27T05:58:58.140Z,4.15
2023-01-27T06:01:29.824Z,4.19
2023-01-27T06:03:57.769Z,4.25
2023-01-27T06:06:28.159Z,4.29
2023-01-27T06:08:55.651Z,4.29
2023-01-27T06:11:24.902Z,4.21
2023-01-27T06:13:53.626Z,4.28
2023-01-27T06:16:22.886Z,4.12
2023-01-27T06:18:51.120Z,4.18
2023-01-27T06:21:20.570Z,4.26
2023-01-27T06:23:48.809Z,4.21
2023-01-27T06:26:18.183Z,4.23
2023-01-27T06:28:45.830Z,4.22
2023-01-27T06:31:16.452Z,4.24
2023-01-27T06:33:44.500Z,4.31
2023-01-27T06:36:14.676Z,4.20
2023-01-27T06:38:42.917Z,4.32
2023-01-27T06:41:10.743Z,4.39
2023-01-27T06:43:38.356Z,4.31
2023-01-27T06:46:06.316Z,4.23
2023-01-27T06:48:34.306Z,4.25
2023-01-27T06:51:01.785Z,4.30
2023-01-27T06:53:29.445Z,4.25
2023-01-27T06:55:59.030Z,4.35
2023-01-27T06:58:27.500Z,4.28
2023-01-27T07:00:56.174Z,4.22
2023-01-27T07:03:24.239Z,4.14
2023-01-27T07:05:53.267Z,4.31
2023-01-27T07:08:21.041Z,4.36
2023-01-27T07:10:48.528Z,4.36
2023-01-27T07:13:16.117Z,4.32
2023-01-27T07:15:43.743Z,4.39
2023-01-27T07:18:14.278Z,4.40
2023-01-27T07:20:42.146Z,4.45
2023-01-27T07:23:10.298Z,4.51
2023-01-27T07:25:38.205Z,4.48
2023-01-27T07:28:06.514Z,4.47
2023-01-27T07:30:38.959Z,4.56
2023-01-27T07:33:08.183Z,4.75
2023-01-27T07:35:37.064Z,4.68
2023-01-27T07:38:06.349Z,4.65
2023-01-27T07:40:34.156Z,4.69
2023-01-27T07:43:02.362Z,4.73
2023-01-27T07:45:30.327Z,4.79
2023-01-27T07:48:05.543Z,4.92
2023-01-27T07:50:33.768Z,4.88
2023-01-27T07:53:02.324Z,4.83
2023-01-27T07:55:31.013Z,4.85
2023-01-27T07:57:58.896Z,4.89
2023-01-27T08:00:26.621Z,5.19
2023-01-27T08:02:55.347Z,5.20
2023-01-27T08:05:23.371Z,5.19
2023-01-27T08:07:52.228Z,5.18
2023-01-27T08:10:19.827Z,5.11
2023-01-27T08:12:47.518Z,5.16
2023-01-27T08:15:18.653Z,5.15
2023-01-27T08:17:54.456Z,5.28
2023-01-27T08:20:23.168Z,5.30
2023-01-27T08:22:50.839Z,5.31
2023-01-27T08:25:18.673Z,5.37
2023-01-27T08:27:49.992Z,5.39
2023-01-27T08:30:18.087Z,5.37
2023-01-27T08:32:45.770Z,5.40
2023-01-27T08:35:13.343Z,5.41
2023-01-27T08:37:40.985Z,5.47
2023-01-27T08:40:09.326Z,5.52
2023-01-27T08:43:04.738Z,5.57
2023-01-27T08:45:32.827Z,5.67
2023-01-27T08:48:00.478Z,5.72
2023-01-27T08:50:29.593Z,5.77
2023-01-27T08:53:00.785Z,5.67
2023-01-27T08:55:29.295Z,5.56
2023-01-27T08:57:56.919Z,5.60
2023-01-27T09:00:24.799Z,5.59
2023-01-27T09:02:52.555Z,5.70
2023-01-27T09:05:21.504Z,5.67
2023-01-27T09:07:49.500Z,5.74
2023-01-27T09:10:17.702Z,5.56
2023-01-27T09:12:46.016Z,5.57
2023-01-27T09:15:14.955Z,5.67
2023-01-27T09:17:42.660Z,5.85
2023-01-27T09:20:11.275Z,5.75
2023-01-27T09:22:40.592Z,5.79
2023-01-27T09:25:12.407Z,5.59
2023-01-27T09:27:40.497Z,5.61
2023-01-27T09:30:11.010Z,5.63
2023-01-27T09:32:38.946Z,5.92
2023-01-27T09:35:07.233Z,5.75
2023-01-27T09:37:41.997Z,5.58
2023-01-27T09:40:24.578Z,5.63
2023-01-27T09:43:01.191Z,5.75
2023-01-27T09:46:08.581Z,5.70
2023-01-27T09:48:54.371Z,5.80
2023-01-27T09:52:03.082Z,5.81
2023-01-27T09:54:48.912Z,5.83
2023-01-27T09:57:34.377Z,5.78
2023-01-27T10:00:35.278Z,5.77
2023-01-27T10:03:27.315Z,5.81
2023-01-27T10:06:22.891Z,5.68
2023-01-27T10:09:20.998Z,5.56
2023-01-27T10:12:17.725Z,5.77
2023-01-27T10:15:05.765Z,5.61
2023-01-27T10:17:47.250Z,5.48
2023-01-27T10:20:25.327Z,5.51
2023-01-27T10:23:08.069Z,5.48
2023-01-27T10:26:08.576Z,5.64
2023-01-27T10:28:38.043Z,5.70
2023-01-27T10:31:16.083Z,5.62
2023-01-27T10:33:52.823Z,5.41
2023-01-27T10:36:34.761Z,5.61
2023-01-27T10:39:36.057Z,5.88
2023-01-27T10:42:18.721Z,6.03
2023-01-27T10:45:28.832Z,6.26
2023-01-27T10:48:02.260Z,5.90
2023-01-27T10:50:36.559Z,5.85
2023-01-27T10:53:13.125Z,5.86
2023-01-27T10:56:04.308Z,6.00
2023-01-27T10:58:38.397Z,6.01
2023-01-27T11:01:23.965Z,5.79
2023-01-27T11:04:02.060Z,6.06
2023-01-27T11:06:37.728Z,6.06
2023-01-27T11:09:29.379Z,6.18
2023-01-27T11:12:02.879Z,6.25
2023-01-27T11:14:45.234Z,6.18
2023-01-27T11:17:37.243Z,6.21
2023-01-27T11:20:23.443Z,6.33
2023-01-27T11:22:56.968Z,6.32
2023-01-27T11:26:06.227Z,6.96
2023-01-27T11:28:42.460Z,7.23
2023-01-27T11:31:14.270Z,7.21
2023-01-27T11:34:03.074Z,7.78
2023-01-27T11:36:31.067Z,7.95
2023-01-27T11:38:59.275Z,8.11
2023-01-27T11:41:26.781Z,8.09
2023-01-27T11:43:54.540Z,8.14
2023-01-27T11:46:24.340Z,8.09
2023-01-27T11:48:57.553Z,8.13
2023-01-27T11:51:30.789Z,8.40
2023-01-27T11:54:12.990Z,8.44
2023-01-27T11:56:44.050Z,8.65
2023-01-27T11:59:39.940Z,8.39
2023-01-27T12:02:07.303Z,8.40
2023-01-27T12:04:35.079Z,8.46
2023-01-27T12:07:17.583Z,8.61
2023-01-27T12:09:45.241Z,8.56
2023-01-27T12:12:15.891Z,8.56
2023-01-27T12:14:55.109Z,8.53
2023-01-27T12:17:27.952Z,8.46
2023-01-27T12:19:59.455Z,8.79
2023-01-27T12:22:32.598Z,8.46
2023-01-27T12:25:05.194Z,8.78
2023-01-27T12:27:58.974Z,9.01
2023-01-27T12:30:29.454Z,8.82
2023-01-27T12:32:58.868Z,8.56
2023-01-27T12:35:30.731Z,8.73
2023-01-27T12:38:05.196Z,8.74
2023-01-27T12:40:33.814Z,8.70
2023-01-27T12:43:13.515Z,8.78
2023-01-27T12:45:43.685Z,8.79
2023-01-27T12:48:14.544Z,8.73
2023-01-27T12:50:43.083Z,8.98
2023-01-27T12:53:27.602Z,8.72
2023-01-27T12:56:04.507Z,8.53
2023-01-27T12:58:45.527Z,8.97
2023-01-27T13:01:32.086Z,8.94
2023-01-27T13:04:03.387Z,8.78
2023-01-27T13:06:37.092Z,8.40
2023-01-27T13:09:04.967Z,8.46
2023-01-27T13:11:40.915Z,8.47
2023-01-27T13:14:16.776Z,8.90
2023-01-27T13:16:55.236Z,8.66
2023-01-27T13:19:41.704Z,8.52
2023-01-27T13:22:17.308Z,8.51
2023-01-27T13:24:50.233Z,8.33
2023-01-27T13:27:22.024Z,8.53
2023-01-27T13:30:02.701Z,8.74
2023-01-27T13:32:35.484Z,8.60
2023-01-27T13:35:26.493Z,8.51
2023-01-27T13:38:15.576Z,8.83
2023-01-27T13:40:45.678Z,8.74
2023-01-27T13:43:36.211Z,8.53
2023-01-27T13:46:21.517Z,8.52
2023-01-27T13:48:54.562Z,8.40
2023-01-27T13:51:30.401Z,8.14
2023-01-27T13:54:02.923Z,8.08
2023-01-27T13:56:45.605Z,8.25
2023-01-27T13:59:29.055Z,8.35
2023-01-27T14:02:22.543Z,8.27
2023-01-27T14:05:28.193Z,8.21
2023-01-27T14:08:10.316Z,8.34
2023-01-27T14:10:42.042Z,8.08
2023-01-27T14:13:40.287Z,7.94
2023-01-27T14:16:17.043Z,7.89
2023-01-27T14:19:00.742Z,7.99
2023-01-27T14:21:47.602Z,7.94
2023-01-27T14:24:27.475Z,7.92
2023-01-27T14:27:08.203Z,8.07
2023-01-27T14:29:54.187Z,7.84
2023-01-27T14:32:36.081Z,7.75
2023-01-27T14:35:43.127Z,7.70
2023-01-27T14:38:32.553Z,7.70
2023-01-27T14:41:40.234Z,7.65
2023-01-27T14:44:38.398Z,7.53
2023-01-27T14:47:24.178Z,7.57
2023-01-27T14:49:54.651Z,7.38
2023-01-27T14:52:29.227Z,7.36
2023-01-27T14:55:21.638Z,7.04
2023-01-27T14:57:55.778Z,7.19
2023-01-27T15:01:03.980Z,7.06
2023-01-27T15:04:06.205Z,6.84
2023-01-27T15:06:33.519Z,6.72
2023-01-27T15:09:33.349Z,6.66
2023-01-27T15:12:25.536Z,6.59
2023-01-27T15:15:30.821Z,6.65
2023-01-27T15:18:09.145Z,6.58
2023-01-27T15:21:09.014Z,6.43
2023-01-27T15:23:55.229Z,6.42
2023-01-27T15:26:25.593Z,6.39
2023-01-27T15:28:53.962Z,6.38
2023-01-27T15:31:25.928Z,6.20
2023-01-27T15:34:20.233Z,6.17
2023-01-27T15:37:20.203Z,6.08
2023-01-27T15:40:16.420Z,6.06
2023-01-27T15:43:02.016Z,6.12
2023-01-27T15:45:37.384Z,6.00
2023-01-27T15:48:22.519Z,5.98
2023-01-27T15:51:01.723Z,5.88
2023-01-27T15:53:35.316Z,5.85
2023-01-27T15:56:04.005Z,5.84
2023-01-27T15:58:40.696Z,5.89
2023-01-27T16:01:29.078Z,5.78
2023-01-27T16:04:17.626Z,5.80
2023-01-27T16:07:02.000Z,5.65
2023-01-27T16:09:43.164Z,5.62
2023-01-27T16:12:20.142Z,5.76
2023-01-27T16:14:47.924Z,5.59
2023-01-27T16:17:20.320Z,5.61
2023-01-27T16:20:19.977Z,5.60
2023-01-27T16:22:58.512Z,5.46
2023-01-27T16:26:15.485Z,5.43
2023-01-27T16:28:46.880Z,5.34
2023-01-27T16:31:19.480Z,5.32
2023-01-27T16:33:51.761Z,5.37
2023-01-27T16:36:32.088Z,5.35
2023-01-27T16:39:18.595Z,5.30
2023-01-27T16:41:53.602Z,5.18
2023-01-27T16:44:25.968Z,5.23
2023-01-27T16:47:14.931Z,5.03
2023-01-27T16:49:44.799Z,5.13
2023-01-27T16:52:35.903Z,5.10
2023-01-27T16:55:20.071Z,5.02
2023-01-27T16:57:47.656Z,4.93
2023-01-27T17:00:21.855Z,4.96
2023-01-27T17:02:51.792Z,4.97
2023-01-27T17:05:20.698Z,4.82
2023-01-27T17:08:16.338Z,4.86
2023-01-27T17:11:04.050Z,4.87
2023-01-27T17:13:46.275Z,4.90
2023-01-27T17:16:22.319Z,4.80
2023-01-27T17:18:52.863Z,4.83
2023-01-27T17:21:31.027Z,4.81
2023-01-27T17:24:14.611Z,4.75
2023-01-27T17:26:49.580Z,4.76
2023-01-27T17:29:21.500Z,4.73
2023-01-27T17:31:49.523Z,4.73
2023-01-27T17:34:19.874Z,4.71
2023-01-27T17:37:07.059Z,4.66
2023-01-27T17:39:37.551Z,4.65
2023-01-27T17:42:05.847Z,4.61
2023-01-27T17:44:33.522Z,4.57
2023-01-27T17:47:02.113Z,4.50
2023-01-27T17:49:31.135Z,4.40
2023-01-27T17:52:00.248Z,4.33
2023-01-27T17:54:41.626Z,4.35
2023-01-27T17:57:16.210Z,4.44
2023-01-27T17:59:46.910Z,4.46
2023-01-27T18:02:26.593Z,4.47
2023-01-27T18:04:57.259Z,4.45
2023-01-27T18:07:24.958Z,4.40
2023-01-27T18:09:54.527Z,4.33
2023-01-27T18:12:34.127Z,4.33
2023-01-27T18:15:32.621Z,4.31
2023-01-27T18:18:01.756Z,4.28
2023-01-27T18:20:34.443Z,4.31
2023-01-27T18:23:12.744Z,4.25
2023-01-27T18:25:53.792Z,4.22
2023-01-27T18:28:21.201Z,4.14
2023-01-27T18:30:50.945Z,4.12
2023-01-27T18:33:18.480Z,4.03
2023-01-27T18:35:57.268Z,4.01
2023-01-27T18:38:27.057Z,3.98
2023-01-27T18:40:55.819Z,3.96
2023-01-27T18:43:41.635Z,3.87
2023-01-27T18:46:10.410Z,3.84
2023-01-27T18:48:39.887Z,3.88
2023-01-27T18:51:13.874Z,3.75
2023-01-27T18:53:42.066Z,3.84
2023-01-27T18:56:09.807Z,3.77
2023-01-27T18:58:38.357Z,3.80
2023-01-27T19:01:15.994Z,3.79
2023-01-27T19:03:43.444Z,3.78
2023-01-27T19:06:16.543Z,3.82
2023-01-27T19:08:44.703Z,3.85
2023-01-27T19:11:16.244Z,3.85
2023-01-27T19:13:44.811Z,3.86
2023-01-27T19:16:16.029Z,4.04
2023-01-27T19:18:45.155Z,4.01
2023-01-27T19:21:14.150Z,3.93
2023-01-27T19:23:46.081Z,3.95
2023-01-27T19:26:22.056Z,3.92
2023-01-27T19:28:54.017Z,3.90
2023-01-27T19:31:22.022Z,3.92
2023-01-27T19:33:50.028Z,3.87
2023-01-27T19:36:17.307Z,3.88
2023-01-27T19:38:44.769Z,3.82
2023-01-27T19:41:12.527Z,3.80
2023-01-27T19:43:41.253Z,3.82
2023-01-27T19:46:18.358Z,3.74
2023-01-27T19:48:45.939Z,3.64
2023-01-27T19:51:13.379Z,3.67
2023-01-27T19:53:41.170Z,3.61
2023-01-27T19:56:15.970Z,3.57
2023-01-27T19:58:47.111Z,3.54
2023-01-27T20:01:14.575Z,3.64
2023-01-27T20:03:41.946Z,3.72
2023-01-27T20:06:16.115Z,3.74
2023-01-27T20:08:43.955Z,3.68
2023-01-27T20:11:29.791Z,3.75
2023-01-27T20:13:57.579Z,3.75
2023-01-27T20:16:25.724Z,3.72
2023-01-27T20:18:53.957Z,3.72
2023-01-27T20:21:21.454Z,3.72
2023-01-27T20:23:49.268Z,3.69
2023-01-27T20:26:18.197Z,3.62
2023-01-27T20:28:47.193Z,3.53
2023-01-27T20:31:17.695Z,3.49
2023-01-27T20:33:49.812Z,3.40
2023-01-27T20:36:20.565Z,3.43
2023-01-27T20:38:48.561Z,3.40
2023-01-27T20:41:18.876Z,3.40
2023-01-27T20:43:46.957Z,3.41
2023-01-27T20:46:17.522Z,3.41
2023-01-27T20:48:44.898Z,3.31
2023-01-27T20:51:14.413Z,3.27
2023-01-27T20:53:45.903Z,3.32
2023-01-27T20:56:16.213Z,3.29
2023-01-27T20:58:44.463Z,3.16
2023-01-27T21:01:17.658Z,3.03
2023-01-27T21:03:45.721Z,3.10
2023-01-27T21:06:15.736Z,3.12
2023-01-27T21:08:43.785Z,3.19
2023-01-27T21:11:12.975Z,3.23
2023-01-27T21:13:40.520Z,3.25
2023-01-27T21:16:08.466Z,3.29
2023-01-27T21:18:36.587Z,3.28
2023-01-27T21:21:04.779Z,3.27
2023-01-27T21:23:33.820Z,3.28
2023-01-27T21:26:06.310Z,3.08
2023-01-27T21:28:34.046Z,3.15
2023-01-27T21:31:16.203Z,3.16
2023-01-27T21:33:51.073Z,3.15
2023-01-27T21:36:19.268Z,3.04
2023-01-27T21:38:50.317Z,3.10
2023-01-27T21:41:37.387Z,3.12
2023-01-27T21:44:25.120Z,3.16
2023-01-27T21:46:52.679Z,3.13
2023-01-27T21:49:20.156Z,3.16
2023-01-27T21:51:49.893Z,3.08
2023-01-27T21:54:17.630Z,3.03
2023-01-27T21:56:45.088Z,3.06
2023-01-27T21:59:12.575Z,3.07
2023-01-27T22:01:40.021Z,3.06
2023-01-27T22:04:07.490Z,3.09
2023-01-27T22:06:36.956Z,3.05
2023-01-27T22:09:04.523Z,3.05
2023-01-27T22:11:32.012Z,3.04
2023-01-27T22:13:59.361Z,3.04
2023-01-27T22:16:26.717Z,2.97
2023-01-27T22:18:54.176Z,2.99
2023-01-27T22:21:21.481Z,3.00
2023-01-27T22:23:48.803Z,3.00
2023-01-27T22:26:16.162Z,2.97
2023-01-27T22:28:44.064Z,2.99
2023-01-27T22:31:11.563Z,2.97
2023-01-27T22:33:38.908Z,2.97
2023-01-27T22:36:07.286Z,2.96
2023-01-27T22:38:38.907Z,3.01
2023-01-27T22:41:06.495Z,3.03
2023-01-27T22:43:33.929Z,2.99
2023-01-27T22:46:02.553Z,2.99
2023-01-27T22:48:30.567Z,3.01
2023-01-27T22:51:03.774Z,3.04
2023-01-27T22:53:31.771Z,3.07
2023-01-27T22:56:00.950Z,3.06
2023-01-27T22:58:29.522Z,3.14
2023-01-27T23:00:57.101Z,3.23
2023-01-27T23:03:24.603Z,3.17
2023-01-27T23:05:52.115Z,3.06
2023-01-27T23:08:20.716Z,3.02
2023-01-27T23:10:49.292Z,2.89
2023-01-27T23:13:16.688Z,2.83
2023-01-27T23:15:44.051Z,2.81
2023-01-27T23:18:11.604Z,2.84
2023-01-27T23:20:40.230Z,2.84
2023-01-27T23:23:09.251Z,2.81
2023-01-27T23:25:41.928Z,2.79
2023-01-27T23:28:09.239Z,2.89
2023-01-27T23:30:36.710Z,2.90
2023-01-27T23:33:04.085Z,2.91
2023-01-27T23:35:31.424Z,2.85
2023-01-27T23:37:58.722Z,2.86
2023-01-27T23:40:26.217Z,2.78
2023-01-27T23:42:53.530Z,2.83
2023-01-27T23:45:20.911Z,2.80
2023-01-27T23:47:48.252Z,2.90
2023-01-27T23:50:15.880Z,2.96
2023-01-27T23:52:43.224Z,2.99
2023-01-27T23:55:12.848Z,3.05
2023-01-27T23:57:40.846Z,3.04
